Time;durP1;ratioP1;P1;durP2;ratioP2;P2;SDS_P1;SDS_P2;PMS_P1;PMS_P2;Temp;Humidity;BMP_temperature;BMP_pressure;BME280_temperature;BME280_humidity;BME280_pressure;Samples;Min_cycle;Max_cycle;Signal;HPM_P1;HPM_P2
2023/08/17 00:00:10;;;;;;;5.38;1.85;;;;;;;;;;4924922;28;100208;-78
2023/08/17 00:02:37;;;;;;;6.80;1.60;;;;;;;;;;4926963;28;98939;-78
2023/08/17 00:05:08;;;;;;;4.97;1.80;;;;;;;;;;4935502;28;99470;-80
2023/08/17 00:07:35;;;;;;;3.33;1.52;;;;;;;;;;4928118;28;99068;-80
2023/08/17 00:10:02;;;;;;;5.05;1.65;;;;;;;;;;4937505;28;99335;-78
2023/08/17 00:12:29;;;;;;;6.28;1.77;;;;;;;;;;4926179;28;100582;-78
2023/08/17 00:14:55;;;;;;;6.00;1.83;;;;;;;;;;4940100;28;97765;-77
2023/08/17 00:17:22;;;;;;;7.15;2.10;;;;;;;;;;4934100;28;98953;-77
2023/08/17 00:19:49;;;;;;;11.35;2.10;;;;;;;;;;4945670;28;99258;-78
2023/08/17 00:22:16;;;;;;;5.95;2.00;;;;;;;;;;4927550;28;99618;-78
2023/08/17 00:24:44;;;;;;;6.53;2.10;;;;;;;;;;4938671;28;101515;-78
2023/08/17 00:27:11;;;;;;;4.28;1.90;;;;;;;;;;4933394;28;100089;-78
2023/08/17 00:29:37;;;;;;;5.90;2.10;;;;;;;;;;4936490;28;98773;-78
2023/08/17 00:32:04;;;;;;;6.38;2.00;;;;;;;;;;4925907;28;103946;-77
2023/08/17 00:34:31;;;;;;;5.43;1.88;;;;;;;;;;4941916;28;98605;-79
2023/08/17 00:36:58;;;;;;;6.38;2.10;;;;;;;;;;4925722;28;99280;-78
2023/08/17 00:39:25;;;;;;;5.22;1.80;;;;;;;;;;4935419;28;99090;-79
2023/08/17 00:41:51;;;;;;;6.03;2.00;;;;;;;;;;4928791;28;98594;-78
2023/08/17 00:44:18;;;;;;;4.60;2.00;;;;;;;;;;4928673;28;99903;-78
2023/08/17 00:46:46;;;;;;;6.70;1.98;;;;;;;;;;4925334;28;102846;-78
2023/08/17 00:49:13;;;;;;;6.88;2.05;;;;;;;;;;4941921;28;102209;-78
2023/08/17 00:51:40;;;;;;;5.70;2.20;;;;;;;;;;4931434;28;100256;-78
2023/08/17 00:54:07;;;;;;;6.82;2.10;;;;;;;;;;4932527;28;98499;-78
2023/08/17 00:56:33;;;;;;;5.63;2.20;;;;;;;;;;4926078;28;100774;-79
2023/08/17 00:59:00;;;;;;;5.85;2.00;;;;;;;;;;4931969;28;99387;-78
2023/08/17 01:01:26;;;;;;;4.68;1.88;;;;;;;;;;4932784;28;100008;-79
2023/08/17 01:03:53;;;;;;;4.72;1.85;;;;;;;;;;4928596;28;98950;-79
2023/08/17 01:06:19;;;;;;;5.90;2.05;;;;;;;;;;4926038;28;100221;-79
2023/08/17 01:08:46;;;;;;;6.07;1.92;;;;;;;;;;4917215;28;98561;-79
2023/08/17 01:11:13;;;;;;;6.68;1.95;;;;;;;;;;4924551;28;100001;-79
2023/08/17 01:13:58;;;;;;;6.55;2.00;;;;;;;;;;4926166;28;98661;-78
2023/08/17 01:16:27;;;;;;;4.32;1.88;;;;;;;;;;4932349;28;101993;-79
2023/08/17 01:18:54;;;;;;;6.13;2.15;;;;;;;;;;4927674;28;99173;-79
2023/08/17 01:21:24;;;;;;;7.03;1.92;;;;;;;;;;4927412;28;100102;-79
2023/08/17 01:23:51;;;;;;;6.30;2.00;;;;;;;;;;4922322;28;99303;-78
2023/08/17 01:26:17;;;;;;;5.20;2.05;;;;;;;;;;4934213;28;100793;-78
2023/08/17 01:28:45;;;;;;;7.68;2.22;;;;;;;;;;4910891;28;97759;-79
2023/08/17 01:31:14;;;;;;;6.20;1.73;;;;;;;;;;4931548;28;99119;-78
2023/08/17 01:33:44;;;;;;;4.90;2.00;;;;;;;;;;4935706;28;98812;-78
2023/08/17 01:36:19;;;;;;;4.03;1.58;;;;;;;;;;4932825;28;99281;-78
2023/08/17 01:38:46;;;;;;;6.65;2.08;;;;;;;;;;4932200;28;99332;-78
2023/08/17 01:41:15;;;;;;;5.28;1.83;;;;;;;;;;4932074;28;99146;-77
2023/08/17 01:43:45;;;;;;;6.10;2.08;;;;;;;;;;4937322;28;98953;-78
2023/08/17 01:46:15;;;;;;;6.25;1.90;;;;;;;;;;4928491;28;99118;-78
2023/08/17 01:48:42;;;;;;;3.70;2.05;;;;;;;;;;4926018;28;99227;-78
2023/08/17 01:51:09;;;;;;;6.55;2.00;;;;;;;;;;4928641;28;98948;-77
2023/08/17 01:53:36;;;;;;;6.00;1.90;;;;;;;;;;4934264;28;101254;-77
2023/08/17 01:56:02;;;;;;;5.97;1.90;;;;;;;;;;4930792;28;98548;-78
2023/08/17 01:58:29;;;;;;;5.97;1.80;;;;;;;;;;4941397;28;100242;-79
2023/08/17 02:00:55;;;;;;;4.70;1.75;;;;;;;;;;4925329;28;99403;-79
2023/08/17 02:03:22;;;;;;;5.57;2.08;;;;;;;;;;4922962;28;102420;-78
2023/08/17 02:05:49;;;;;;;7.30;2.00;;;;;;;;;;4938678;28;100701;-78
2023/08/17 02:08:15;;;;;;;5.68;2.00;;;;;;;;;;4927105;28;98994;-78
2023/08/17 02:10:42;;;;;;;6.13;1.75;;;;;;;;;;4944067;28;99628;-79
2023/08/17 02:13:09;;;;;;;5.85;1.83;;;;;;;;;;4932531;28;100652;-79
2023/08/17 02:15:44;;;;;;;3.88;1.80;;;;;;;;;;4942983;28;98946;-79
2023/08/17 02:18:10;;;;;;;5.22;1.77;;;;;;;;;;4927597;28;99880;-78
2023/08/17 02:20:37;;;;;;;4.63;1.70;;;;;;;;;;4927186;28;98609;-79
2023/08/17 02:23:03;;;;;;;6.10;1.80;;;;;;;;;;4928406;28;101731;-78
2023/08/17 02:25:35;;;;;;;6.43;1.92;;;;;;;;;;4929480;28;99968;-79
2023/08/17 02:28:03;;;;;;;5.28;1.80;;;;;;;;;;4924891;28;99124;-79
2023/08/17 02:30:30;;;;;;;4.63;1.90;;;;;;;;;;4931309;28;98750;-79
2023/08/17 02:32:57;;;;;;;6.72;2.25;;;;;;;;;;4924607;28;102228;-79
2023/08/17 02:35:24;;;;;;;5.43;2.08;;;;;;;;;;4948227;28;98495;-78
2023/08/17 02:37:50;;;;;;;5.40;2.00;;;;;;;;;;4921920;28;99240;-78
2023/08/17 02:40:17;;;;;;;5.28;1.80;;;;;;;;;;4929950;28;98730;-78
2023/08/17 02:42:44;;;;;;;6.50;1.77;;;;;;;;;;4929316;28;99739;-78
2023/08/17 02:45:10;;;;;;;6.38;1.90;;;;;;;;;;4929861;28;99427;-79
2023/08/17 02:47:37;;;;;;;5.78;2.10;;;;;;;;;;4933472;28;99189;-78
2023/08/17 02:50:04;;;;;;;7.03;2.20;;;;;;;;;;4937057;28;99358;-78
2023/08/17 02:52:32;;;;;;;5.88;1.90;;;;;;;;;;4938284;28;101862;-78
2023/08/17 02:54:58;;;;;;;6.95;1.90;;;;;;;;;;4937010;28;98529;-79
2023/08/17 02:57:25;;;;;;;6.80;1.98;;;;;;;;;;4935713;28;101697;-79
2023/08/17 02:59:52;;;;;;;5.70;1.80;;;;;;;;;;4940952;28;98571;-79
2023/08/17 03:02:19;;;;;;;6.25;2.10;;;;;;;;;;4936201;28;98543;-79
2023/08/17 03:04:45;;;;;;;5.68;2.00;;;;;;;;;;4930944;28;99578;-79
2023/08/17 03:07:12;;;;;;;5.95;2.15;;;;;;;;;;4925144;28;98339;-79
2023/08/17 03:09:38;;;;;;;6.18;1.80;;;;;;;;;;4928112;28;101271;-79
2023/08/17 03:12:05;;;;;;;5.80;2.10;;;;;;;;;;4933163;28;99477;-79
2023/08/17 03:14:31;;;;;;;8.75;2.10;;;;;;;;;;4939389;28;99370;-79
2023/08/17 03:16:58;;;;;;;5.00;2.08;;;;;;;;;;4927465;28;102973;-79
2023/08/17 03:19:25;;;;;;;6.53;1.95;;;;;;;;;;4934160;28;99096;-78
2023/08/17 03:21:52;;;;;;;5.40;2.10;;;;;;;;;;4930033;28;101748;-79
2023/08/17 03:24:18;;;;;;;6.45;1.92;;;;;;;;;;4934563;28;100259;-78
2023/08/17 03:26:46;;;;;;;6.47;2.08;;;;;;;;;;4931815;28;99409;-79
2023/08/17 03:29:12;;;;;;;4.90;1.85;;;;;;;;;;4927894;28;99249;-78
2023/08/17 03:31:38;;;;;;;6.35;2.00;;;;;;;;;;4928144;28;97841;-79
2023/08/17 03:34:07;;;;;;;7.47;2.08;;;;;;;;;;4921225;28;99096;-79
2023/08/17 03:36:34;;;;;;;5.55;2.05;;;;;;;;;;4937634;28;101480;-79
2023/08/17 03:39:00;;;;;;;6.40;1.90;;;;;;;;;;4929490;28;99977;-78
2023/08/17 03:41:27;;;;;;;5.80;1.80;;;;;;;;;;4943802;28;98864;-78
2023/08/17 03:43:53;;;;;;;4.93;1.92;;;;;;;;;;4924142;28;101059;-78
2023/08/17 03:46:20;;;;;;;8.05;2.20;;;;;;;;;;4928573;28;99082;-78
2023/08/17 03:48:46;;;;;;;6.20;1.92;;;;;;;;;;4928186;28;101604;-78
2023/08/17 03:51:13;;;;;;;5.28;1.90;;;;;;;;;;4926911;28;99543;-78
2023/08/17 03:53:39;;;;;;;5.60;2.10;;;;;;;;;;4928004;28;99545;-78
2023/08/17 03:56:06;;;;;;;7.25;2.17;;;;;;;;;;4939909;28;101661;-78
2023/08/17 03:58:34;;;;;;;4.72;1.92;;;;;;;;;;4931706;28;99230;-78
2023/08/17 04:01:02;;;;;;;6.15;1.80;;;;;;;;;;4939087;28;98518;-78
2023/08/17 04:03:30;;;;;;;5.32;2.03;;;;;;;;;;4928950;28;101566;-78
2023/08/17 04:05:56;;;;;;;7.30;1.90;;;;;;;;;;4927599;28;99072;-78
2023/08/17 04:08:23;;;;;;;7.20;2.22;;;;;;;;;;4910394;28;102103;-78
2023/08/17 04:10:49;;;;;;;6.57;1.83;;;;;;;;;;4935337;28;100148;-78
2023/08/17 04:13:16;;;;;;;5.75;2.00;;;;;;;;;;4929640;28;98708;-79
2023/08/17 04:15:42;;;;;;;6.55;2.10;;;;;;;;;;4936066;28;98904;-78
2023/08/17 04:18:09;;;;;;;6.43;2.00;;;;;;;;;;4929394;28;102437;-78
2023/08/17 04:20:35;;;;;;;4.85;1.77;;;;;;;;;;4932615;28;98190;-78
2023/08/17 04:23:02;;;;;;;8.73;2.10;;;;;;;;;;4932722;28;98503;-78
2023/08/17 04:25:29;;;;;;;6.07;2.10;;;;;;;;;;4930035;28;98626;-78
2023/08/17 04:27:55;;;;;;;4.80;1.63;;;;;;;;;;4934453;28;101224;-77
2023/08/17 04:30:23;;;;;;;3.88;1.77;;;;;;;;;;4937838;28;101566;-78
2023/08/17 04:32:55;;;;;;;7.30;2.00;;;;;;;;;;4933772;28;98691;-78
2023/08/17 04:35:22;;;;;;;5.93;1.83;;;;;;;;;;4933063;28;100782;-78
2023/08/17 04:37:48;;;;;;;6.05;1.63;;;;;;;;;;4927238;28;102255;-78
2023/08/17 04:40:15;;;;;;;7.85;2.30;;;;;;;;;;4928823;28;99086;-78
2023/08/17 04:42:42;;;;;;;7.93;1.75;;;;;;;;;;4925760;28;100749;-78
2023/08/17 04:45:09;;;;;;;;;;;;;;;;;;4945756;28;100907;-79
2023/08/17 04:47:39;;;;;;;5.97;2.00;;;;;;;;;;4931044;28;98929;-79
2023/08/17 04:50:06;;;;;;;6.88;2.13;;;;;;;;;;4926627;28;102145;-79
2023/08/17 04:52:33;;;;;;;4.30;1.70;;;;;;;;;;4925017;28;99443;-79
2023/08/17 04:55:01;;;;;;;5.68;1.63;;;;;;;;;;4929439;28;99625;-79
2023/08/17 04:57:30;;;;;;;6.32;2.00;;;;;;;;;;4924908;28;101586;-79
2023/08/17 04:59:57;;;;;;;5.50;1.85;;;;;;;;;;4927121;28;99312;-79
2023/08/17 05:02:23;;;;;;;5.85;1.60;;;;;;;;;;4929576;28;101131;-79
2023/08/17 05:04:51;;;;;;;7.85;2.00;;;;;;;;;;4925995;28;101153;-79
2023/08/17 05:07:18;;;;;;;6.07;1.90;;;;;;;;;;4901345;28;98960;-79
2023/08/17 05:09:45;;;;;;;5.07;1.67;;;;;;;;;;4922899;28;101516;-79
2023/08/17 05:12:13;;;;;;;2.78;1.60;;;;;;;;;;4942477;28;99311;-79
2023/08/17 05:14:39;;;;;;;6.53;1.83;;;;;;;;;;4927738;28;98919;-79
2023/08/17 05:17:06;;;;;;;4.20;1.67;;;;;;;;;;4930268;28;99844;-79
2023/08/17 05:19:32;;;;;;;5.43;1.70;;;;;;;;;;4920752;28;98565;-79
2023/08/17 05:21:59;;;;;;;6.28;1.80;;;;;;;;;;4925991;28;101694;-79
2023/08/17 05:24:26;;;;;;;4.07;1.50;;;;;;;;;;4921900;28;101504;-79
2023/08/17 05:26:53;;;;;;;5.13;1.63;;;;;;;;;;4939623;28;98603;-79
2023/08/17 05:29:20;;;;;;;5.88;1.60;;;;;;;;;;4932841;28;99203;-79
2023/08/17 05:31:47;;;;;;;4.85;1.45;;;;;;;;;;4938103;28;98609;-79
2023/08/17 05:34:13;;;;;;;6.60;1.70;;;;;;;;;;4928299;28;98822;-79
2023/08/17 05:36:40;;;;;;;5.55;1.60;;;;;;;;;;4898808;28;101088;-79
2023/08/17 05:39:07;;;;;;;;;;;;;;;;;;4926789;28;99393;-79
2023/08/17 05:41:34;;;;;;;4.93;1.50;;;;;;;;;;4930813;28;101064;-79
2023/08/17 05:44:00;;;;;;;4.65;1.48;;;;;;;;;;4935473;28;100298;-79
2023/08/17 05:46:27;;;;;;;5.72;1.80;;;;;;;;;;4929775;28;98652;-79
2023/08/17 05:48:53;;;;;;;6.60;1.70;;;;;;;;;;4939083;28;98824;-79
2023/08/17 05:51:20;;;;;;;4.75;1.80;;;;;;;;;;4946759;28;101233;-79
2023/08/17 05:53:46;;;;;;;3.08;1.45;;;;;;;;;;4928507;28;98955;-79
2023/08/17 05:56:13;;;;;;;3.92;1.50;;;;;;;;;;4937532;28;102058;-79
2023/08/17 05:58:39;;;;;;;6.07;1.58;;;;;;;;;;4927365;28;97924;-79
2023/08/17 06:01:07;;;;;;;5.75;1.55;;;;;;;;;;4936441;28;98922;-79
2023/08/17 06:03:35;;;;;;;6.05;1.80;;;;;;;;;;4936855;28;99333;-80
2023/08/17 06:06:01;;;;;;;;;;;;;;;;;;4938307;28;99332;-79
2023/08/17 06:08:29;;;;;;;7.20;1.52;;;;;;;;;;4931098;28;99124;-79
2023/08/17 06:10:55;;;;;;;3.25;1.38;;;;;;;;;;4934130;28;99566;-79
2023/08/17 06:13:22;;;;;;;4.72;1.50;;;;;;;;;;4939562;28;99124;-79
2023/08/17 06:15:49;;;;;;;4.18;1.55;;;;;;;;;;4944884;28;100296;-79
2023/08/17 06:18:15;;;;;;;4.00;1.50;;;;;;;;;;4931863;28;99165;-78
2023/08/17 06:20:42;;;;;;;4.47;1.35;;;;;;;;;;4931106;28;99174;-79
2023/08/17 06:23:08;;;;;;;3.55;1.30;;;;;;;;;;4945208;28;100446;-80
2023/08/17 06:25:35;;;;;;;2.83;1.10;;;;;;;;;;4931246;28;99103;-80
2023/08/17 06:28:02;;;;;;;5.03;1.33;;;;;;;;;;4925751;28;100131;-80
2023/08/17 06:30:28;;;;;;;2.72;1.30;;;;;;;;;;4938340;28;101320;-80
2023/08/17 06:32:55;;;;;;;4.88;1.50;;;;;;;;;;4929856;28;98780;-79
2023/08/17 06:35:22;;;;;;;3.63;1.40;;;;;;;;;;4931290;28;99204;-80
2023/08/17 06:37:48;;;;;;;4.15;1.23;;;;;;;;;;4919317;28;98525;-80
2023/08/17 06:40:15;;;;;;;5.32;1.48;;;;;;;;;;4935644;28;99626;-80
2023/08/17 06:42:41;;;;;;;3.42;1.40;;;;;;;;;;4913432;28;99475;-80
2023/08/17 06:45:08;;;;;;;5.10;1.40;;;;;;;;;;4935474;28;99149;-80
2023/08/17 06:47:34;;;;;;;8.88;1.55;;;;;;;;;;4945742;28;100095;-78
2023/08/17 06:50:01;;;;;;;4.85;1.50;;;;;;;;;;4943009;28;100390;-77
2023/08/17 06:52:28;;;;;;;3.85;1.60;;;;;;;;;;4942438;28;98817;-77
2023/08/17 06:54:54;;;;;;;7.10;2.00;;;;;;;;;;4949124;28;99295;-77
2023/08/17 06:57:21;;;;;;;5.40;1.77;;;;;;;;;;4937205;28;98981;-78
2023/08/17 06:59:48;;;;;;;4.35;1.67;;;;;;;;;;4932998;28;99306;-77
2023/08/17 07:02:14;;;;;;;4.00;1.38;;;;;;;;;;4939015;28;98445;-77
2023/08/17 07:04:41;;;;;;;4.55;1.70;;;;;;;;;;4929442;28;98925;-77
2023/08/17 07:07:07;;;;;;;5.18;1.50;;;;;;;;;;4937078;28;98950;-77
2023/08/17 07:09:34;;;;;;;3.70;1.50;;;;;;;;;;4945193;28;99356;-78
2023/08/17 07:12:00;;;;;;;7.40;1.70;;;;;;;;;;4933698;28;98255;-77
2023/08/17 07:14:28;;;;;;;7.47;1.80;;;;;;;;;;4946227;28;98601;-78
2023/08/17 07:16:54;;;;;;;7.82;1.70;;;;;;;;;;4945879;28;99287;-78
2023/08/17 07:19:21;;;;;;;4.80;1.70;;;;;;;;;;4943940;28;99260;-80
2023/08/17 07:22:01;;;;;;;4.25;1.65;;;;;;;;;;4942384;28;99522;-78
2023/08/17 07:24:28;;;;;;;4.28;1.60;;;;;;;;;;4939696;28;98855;-78
2023/08/17 07:26:55;;;;;;;11.00;2.10;;;;;;;;;;4933566;28;99903;-78
2023/08/17 07:29:21;;;;;;;9.77;1.73;;;;;;;;;;4945619;28;99311;-80
2023/08/17 07:31:48;;;;;;;5.50;1.65;;;;;;;;;;4916208;28;99844;-80
2023/08/17 07:34:15;;;;;;;9.00;1.77;;;;;;;;;;4924231;28;101998;-81
2023/08/17 07:36:44;;;;;;;5.43;1.70;;;;;;;;;;4936614;28;98604;-81
2023/08/17 07:39:10;;;;;;;7.30;1.92;;;;;;;;;;4942255;28;100019;-81
2023/08/17 07:41:37;;;;;;;6.75;2.00;;;;;;;;;;4935765;28;101678;-80
2023/08/17 07:44:04;;;;;;;7.80;1.90;;;;;;;;;;4942331;28;99386;-79
2023/08/17 07:46:30;;;;;;;6.13;2.00;;;;;;;;;;4929828;28;102884;-80
2023/08/17 07:48:57;;;;;;;5.28;1.80;;;;;;;;;;4937573;28;99123;-80
2023/08/17 07:51:23;;;;;;;5.80;1.95;;;;;;;;;;4928939;28;98602;-79
2023/08/17 07:53:50;;;;;;;6.13;1.77;;;;;;;;;;4944274;28;98849;-80
2023/08/17 07:56:17;;;;;;;5.30;1.73;;;;;;;;;;4932266;28;100892;-81
2023/08/17 07:58:43;;;;;;;5.43;1.90;;;;;;;;;;4938371;28;98905;-80
2023/08/17 08:01:10;;;;;;;6.90;2.05;;;;;;;;;;4934484;28;98901;-80
2023/08/17 08:03:36;;;;;;;6.63;2.05;;;;;;;;;;4912307;28;98829;-81
2023/08/17 08:06:03;;;;;;;9.57;2.20;;;;;;;;;;4922832;28;99080;-80
2023/08/17 08:08:29;;;;;;;5.78;1.90;;;;;;;;;;4943947;28;100298;-79
2023/08/17 08:10:56;;;;;;;5.35;1.63;;;;;;;;;;4934180;28;98562;-80
2023/08/17 08:13:23;;;;;;;5.85;1.90;;;;;;;;;;4933317;28;98785;-80
2023/08/17 08:15:49;;;;;;;6.22;2.08;;;;;;;;;;4935838;28;99388;-79
2023/08/17 08:18:16;;;;;;;5.40;2.10;;;;;;;;;;4933499;28;98566;-80
2023/08/17 08:20:43;;;;;;;7.28;2.50;;;;;;;;;;4936222;28;99029;-79
2023/08/17 08:23:09;;;;;;;7.57;1.92;;;;;;;;;;4928013;28;99688;-81
2023/08/17 08:25:36;;;;;;;7.15;2.22;;;;;;;;;;4927267;28;98720;-81
2023/08/17 08:28:03;;;;;;;5.10;1.80;;;;;;;;;;4939977;28;99406;-82
2023/08/17 08:30:30;;;;;;;4.72;1.92;;;;;;;;;;4939167;28;98604;-82
2023/08/17 08:32:58;;;;;;;5.90;1.85;;;;;;;;;;4928607;28;100647;-82
2023/08/17 08:35:26;;;;;;;4.50;1.90;;;;;;;;;;4934110;28;100488;-81
2023/08/17 08:37:52;;;;;;;7.00;2.05;;;;;;;;;;4931440;28;99227;-81
2023/08/17 08:40:20;;;;;;;7.85;1.98;;;;;;;;;;4932260;28;99175;-81
2023/08/17 08:42:46;;;;;;;5.68;2.17;;;;;;;;;;4936628;28;100840;-84
2023/08/17 08:45:13;;;;;;;8.60;2.10;;;;;;;;;;4926430;28;99490;-84
2023/08/17 08:47:41;;;;;;;6.05;2.00;;;;;;;;;;4927321;28;100239;-84
2023/08/17 08:50:08;;;;;;;7.03;2.13;;;;;;;;;;4929152;28;98182;-84
2023/08/17 08:52:36;;;;;;;7.50;2.05;;;;;;;;;;4928374;28;99043;-83
2023/08/17 08:55:09;;;;;;;8.48;2.00;;;;;;;;;;4926669;28;100287;-83
2023/08/17 08:57:36;;;;;;;6.15;2.00;;;;;;;;;;4928448;28;100131;-84
2023/08/17 09:00:03;;;;;;;8.35;2.00;;;;;;;;;;4940469;28;99964;-83
2023/08/17 09:02:30;;;;;;;;;;;;;;;;;;4940811;28;98843;-82
2023/08/17 09:04:56;;;;;;;7.60;2.47;;;;;;;;;;4949917;28;98864;-82
2023/08/17 09:07:23;;;;;;;6.95;2.00;;;;;;;;;;4940145;28;99178;-82
2023/08/17 09:09:50;;;;;;;6.70;2.10;;;;;;;;;;4950208;28;98920;-83
2023/08/17 09:12:18;;;;;;;5.20;1.80;;;;;;;;;;4931703;28;98559;-82
2023/08/17 09:15:04;;;;;;;8.05;2.33;;;;;;;;;;4940057;28;98315;-82
2023/08/17 09:17:34;;;;;;;4.82;1.75;;;;;;;;;;4943440;28;98758;-82
2023/08/17 09:20:00;;;;;;;5.10;1.95;;;;;;;;;;4948049;28;99434;-82
2023/08/17 09:22:43;;;;;;;6.53;1.67;;;;;;;;;;4932773;28;99789;-81
2023/08/17 09:25:22;;;;;;;5.72;1.90;;;;;;;;;;4933450;28;99022;-82
2023/08/17 09:27:48;;;;;;;5.65;2.00;;;;;;;;;;4944638;28;100027;-83
2023/08/17 09:30:15;;;;;;;7.47;2.10;;;;;;;;;;4939499;28;98948;-82
2023/08/17 09:32:47;;;;;;;6.47;1.92;;;;;;;;;;4938382;28;98711;-82
2023/08/17 09:35:14;;;;;;;7.38;1.90;;;;;;;;;;4939384;28;99113;-83
2023/08/17 09:37:41;;;;;;;6.15;1.92;;;;;;;;;;4933038;28;98778;-83
2023/08/17 09:40:08;;;;;;;6.10;1.90;;;;;;;;;;4931051;28;98901;-83
2023/08/17 09:42:35;;;;;;;7.00;2.30;;;;;;;;;;4932149;28;101611;-83
2023/08/17 09:45:02;;;;;;;6.07;2.20;;;;;;;;;;4933739;28;99138;-84
2023/08/17 09:47:29;;;;;;;7.65;2.20;;;;;;;;;;4936658;28;99374;-84
2023/08/17 09:49:55;;;;;;;9.00;2.55;;;;;;;;;;4936029;28;100103;-84
2023/08/17 09:52:23;;;;;;;6.57;2.60;;;;;;;;;;4933972;28;99081;-84
2023/08/17 09:54:52;;;;;;;11.38;2.65;;;;;;;;;;4930405;28;99776;-83
2023/08/17 09:57:19;;;;;;;7.40;3.53;;;;;;;;;;4929762;28;98956;-84
2023/08/17 09:59:50;;;;;;;7.57;2.55;;;;;;;;;;4928656;28;99666;-84
2023/08/17 10:02:23;;;;;;;7.22;2.55;;;;;;;;;;4935365;28;99274;-84
2023/08/17 10:04:52;;;;;;;12.25;3.08;;;;;;;;;;4944556;28;98378;-83
2023/08/17 10:07:19;;;;;;;9.95;2.90;;;;;;;;;;4932044;28;98808;-83
2023/08/17 10:09:53;;;;;;;6.65;2.50;;;;;;;;;;4927891;28;99307;-83
2023/08/17 10:12:21;;;;;;;9.15;3.20;;;;;;;;;;4934512;28;99260;-85
2023/08/17 10:14:53;;;;;;;8.80;2.78;;;;;;;;;;4929055;28;99152;-84
2023/08/17 10:17:24;;;;;;;7.85;2.63;;;;;;;;;;4928875;28;98613;-83
2023/08/17 10:19:53;;;;;;;9.50;2.72;;;;;;;;;;4932349;28;100129;-83
2023/08/17 10:22:46;;;;;;;8.27;3.00;;;;;;;;;;4925300;28;99685;-84
2023/08/17 10:25:13;;;;;;;8.77;3.10;;;;;;;;;;4935116;28;98881;-84
2023/08/17 10:27:41;;;;;;;8.13;2.70;;;;;;;;;;4927457;28;99728;-83
2023/08/17 10:30:09;;;;;;;8.00;2.80;;;;;;;;;;4931176;28;98698;-83
2023/08/17 10:32:35;;;;;;;11.13;2.78;;;;;;;;;;4927275;28;98786;-83
2023/08/17 10:35:03;;;;;;;7.07;2.50;;;;;;;;;;4931327;28;98739;-84
2023/08/17 10:37:30;;;;;;;8.82;3.13;;;;;;;;;;4929665;28;99384;-85
2023/08/17 10:39:57;;;;;;;7.22;2.75;;;;;;;;;;4938626;28;99605;-83
2023/08/17 10:42:35;;;;;;;8.70;2.85;;;;;;;;;;4931873;28;101968;-84
2023/08/17 10:45:21;;;;;;;8.88;2.80;;;;;;;;;;4932858;28;98535;-83
2023/08/17 10:47:48;;;;;;;7.22;2.70;;;;;;;;;;4946474;28;98938;-82
2023/08/17 10:50:24;;;;;;;9.70;2.60;;;;;;;;;;4940948;28;99118;-83
2023/08/17 10:52:53;;;;;;;7.03;2.50;;;;;;;;;;4939562;28;98945;-83
2023/08/17 10:55:40;;;;;;;8.43;3.00;;;;;;;;;;4952619;28;100081;-82
2023/08/17 10:58:13;;;;;;;7.38;2.50;;;;;;;;;;4938072;28;100027;-84
2023/08/17 11:00:42;;;;;;;7.00;2.70;;;;;;;;;;4934163;28;99136;-82
2023/08/17 11:03:10;;;;;;;7.25;2.40;;;;;;;;;;4938264;28;99628;-83
2023/08/17 11:05:41;;;;;;;8.73;2.90;;;;;;;;;;4934708;28;99196;-83
2023/08/17 11:08:09;;;;;;;8.82;2.80;;;;;;;;;;4929821;28;99024;-82
2023/08/17 11:10:36;;;;;;;9.55;3.17;;;;;;;;;;4933846;28;99102;-82
2023/08/17 11:13:03;;;;;;;10.15;3.10;;;;;;;;;;4934330;28;98663;-81
2023/08/17 11:15:42;;;;;;;7.95;2.85;;;;;;;;;;4937340;28;99163;-83
2023/08/17 11:18:10;;;;;;;7.97;2.83;;;;;;;;;;4952481;28;99025;-83
2023/08/17 11:20:37;;;;;;;;;;;;;;;;;;4956013;28;99823;-83
2023/08/17 11:23:05;;;;;;;7.60;2.60;;;;;;;;;;4947223;28;100782;-83
2023/08/17 11:25:32;;;;;;;10.18;3.05;;;;;;;;;;4941199;28;98766;-83
2023/08/17 11:27:59;;;;;;;8.07;2.90;;;;;;;;;;4930912;28;99640;-82
2023/08/17 11:30:27;;;;;;;9.73;3.38;;;;;;;;;;4936157;28;100245;-82
2023/08/17 11:32:54;;;;;;;7.78;2.80;;;;;;;;;;4931464;28;98831;-83
2023/08/17 11:35:21;;;;;;;8.27;3.42;;;;;;;;;;4934959;28;98765;-85
2023/08/17 11:37:49;;;;;;;9.52;2.92;;;;;;;;;;4932895;28;99188;-83
2023/08/17 11:40:15;;;;;;;7.53;2.90;;;;;;;;;;4943757;28;98776;-82
2023/08/17 11:42:42;;;;;;;9.32;2.90;;;;;;;;;;4948741;28;99829;-82
2023/08/17 11:45:09;;;;;;;7.93;2.90;;;;;;;;;;4938736;28;98091;-84
2023/08/17 11:47:37;;;;;;;9.48;2.92;;;;;;;;;;4932868;28;98567;-83
2023/08/17 11:50:07;;;;;;;8.70;3.20;;;;;;;;;;4931437;28;99125;-83
2023/08/17 11:52:46;;;;;;;7.53;2.60;;;;;;;;;;4928234;28;99699;-84
2023/08/17 11:55:17;;;;;;;8.75;2.92;;;;;;;;;;4953065;28;99509;-84
2023/08/17 11:57:43;;;;;;;11.00;3.13;;;;;;;;;;4923261;28;99721;-83
2023/08/17 12:00:16;;;;;;;7.40;2.90;;;;;;;;;;4931456;28;98980;-83
2023/08/17 12:02:43;;;;;;;7.78;3.05;;;;;;;;;;4942898;28;99182;-83
2023/08/17 12:05:11;;;;;;;8.57;2.53;;;;;;;;;;4937938;28;98918;-83
2023/08/17 12:07:38;;;;;;;6.30;2.60;;;;;;;;;;4942265;28;98782;-83
2023/08/17 12:10:05;;;;;;;8.80;3.20;;;;;;;;;;4941013;28;99320;-83
2023/08/17 12:12:36;;;;;;;7.55;2.85;;;;;;;;;;4942390;28;99234;-83
2023/08/17 12:15:03;;;;;;;8.02;2.85;;;;;;;;;;4943227;28;100276;-83
2023/08/17 12:17:30;;;;;;;10.10;2.63;;;;;;;;;;4934886;28;100237;-83
2023/08/17 12:19:58;;;;;;;8.18;3.33;;;;;;;;;;4946874;28;98832;-82
2023/08/17 12:22:28;;;;;;;7.72;3.03;;;;;;;;;;4928830;28;99814;-82
2023/08/17 12:24:55;;;;;;;9.07;2.60;;;;;;;;;;4943590;28;99601;-83
2023/08/17 12:27:23;;;;;;;8.77;3.25;;;;;;;;;;4948161;28;98930;-83
2023/08/17 12:29:51;;;;;;;9.07;3.67;;;;;;;;;;4943202;28;99502;-82
2023/08/17 12:32:19;;;;;;;9.18;3.53;;;;;;;;;;4933860;28;99174;-82
2023/08/17 12:34:46;;;;;;;8.90;3.20;;;;;;;;;;4938703;28;98838;-83
2023/08/17 12:37:18;;;;;;;7.65;3.13;;;;;;;;;;4934862;28;99925;-83
2023/08/17 12:39:44;;;;;;;10.43;2.80;;;;;;;;;;4944804;28;98573;-84
2023/08/17 12:42:11;;;;;;;9.57;3.15;;;;;;;;;;4939241;28;100176;-83
2023/08/17 12:44:38;;;;;;;7.85;2.67;;;;;;;;;;4947720;28;99049;-83
2023/08/17 12:47:04;;;;;;;8.50;3.30;;;;;;;;;;4941465;28;98472;-83
2023/08/17 12:49:31;;;;;;;7.93;3.20;;;;;;;;;;4938951;28;100157;-82
2023/08/17 12:51:57;;;;;;;9.60;2.97;;;;;;;;;;4934261;28;99160;-82
2023/08/17 12:54:24;;;;;;;7.22;2.72;;;;;;;;;;4936560;28;99190;-82
2023/08/17 12:56:50;;;;;;;7.35;2.85;;;;;;;;;;4934191;28;99971;-84
2023/08/17 12:59:17;;;;;;;7.53;3.10;;;;;;;;;;4949069;28;98073;-83
2023/08/17 13:01:43;;;;;;;7.13;2.72;;;;;;;;;;4937942;28;99643;-84
2023/08/17 13:04:10;;;;;;;7.68;2.45;;;;;;;;;;4929065;28;101225;-83
2023/08/17 13:06:37;;;;;;;6.57;2.33;;;;;;;;;;4935450;28;99602;-82
2023/08/17 13:09:15;;;;;;;7.78;2.60;;;;;;;;;;4927184;28;99665;-82
2023/08/17 13:11:42;;;;;;;6.97;2.50;;;;;;;;;;4931289;28;98915;-82
2023/08/17 13:14:09;;;;;;;6.30;2.58;;;;;;;;;;4945495;28;99376;-82
2023/08/17 13:16:36;;;;;;;6.22;2.35;;;;;;;;;;4933803;28;101743;-83
2023/08/17 13:19:02;;;;;;;5.93;2.30;;;;;;;;;;4945679;28;99008;-81
2023/08/17 13:21:29;;;;;;;5.70;2.22;;;;;;;;;;4934543;28;100179;-82
2023/08/17 13:23:55;;;;;;;5.40;2.30;;;;;;;;;;4942862;28;98841;-81
2023/08/17 13:26:22;;;;;;;5.40;2.45;;;;;;;;;;4941673;28;98674;-82
2023/08/17 13:28:49;;;;;;;5.75;2.30;;;;;;;;;;4926162;28;102040;-82
2023/08/17 13:31:15;;;;;;;6.60;2.38;;;;;;;;;;4935108;28;99454;-82
2023/08/17 13:33:50;;;;;;;5.50;2.30;;;;;;;;;;4936095;28;99734;-82
2023/08/17 13:36:17;;;;;;;;;;;;;;;;;;4937438;28;99422;-82
2023/08/17 13:38:45;;;;;;;6.05;2.47;;;;;;;;;;4945027;28;98517;-81
2023/08/17 13:41:11;;;;;;;;;;;;;;;;;;4938502;28;98939;-82
2023/08/17 13:43:38;;;;;;;7.00;2.20;;;;;;;;;;4947006;28;99250;-84
2023/08/17 13:46:05;;;;;;;5.35;2.28;;;;;;;;;;4936814;28;98976;-83
2023/08/17 13:48:31;;;;;;;7.30;2.38;;;;;;;;;;4938919;28;98617;-83
2023/08/17 13:50:58;;;;;;;6.63;2.38;;;;;;;;;;4947091;28;102234;-82
2023/08/17 13:53:24;;;;;;;6.75;2.47;;;;;;;;;;4941000;28;101973;-83
2023/08/17 13:55:51;;;;;;;6.50;2.78;;;;;;;;;;4923023;28;101841;-83
2023/08/17 13:58:18;;;;;;;4.95;2.25;;;;;;;;;;4932753;28;98942;-81
2023/08/17 14:00:45;;;;;;;4.85;2.25;;;;;;;;;;4943904;28;99603;-80
2023/08/17 14:03:11;;;;;;;6.75;2.20;;;;;;;;;;4945685;28;99477;-83
2023/08/17 14:05:38;;;;;;;5.10;2.20;;;;;;;;;;4946953;28;98582;-81
2023/08/17 14:08:05;;;;;;;5.00;2.28;;;;;;;;;;4936331;28;99827;-82
2023/08/17 14:10:33;;;;;;;6.85;2.50;;;;;;;;;;4930859;28;99180;-82
2023/08/17 14:13:05;;;;;;;6.07;2.42;;;;;;;;;;4917404;28;98347;-84
2023/08/17 14:15:32;;;;;;;6.53;2.22;;;;;;;;;;4927127;28;101754;-82
2023/08/17 14:17:58;;;;;;;7.55;2.47;;;;;;;;;;4946477;28;99736;-82
2023/08/17 14:20:25;;;;;;;6.00;2.40;;;;;;;;;;4933721;28;99243;-82
2023/08/17 14:22:52;;;;;;;5.57;2.47;;;;;;;;;;4939704;28;99738;-82
2023/08/17 14:25:19;;;;;;;4.95;2.35;;;;;;;;;;4928859;28;98592;-82
2023/08/17 14:27:46;;;;;;;10.70;4.05;;;;;;;;;;4935148;28;101964;-82
2023/08/17 14:30:12;;;;;;;11.52;6.15;;;;;;;;;;4945558;28;99247;-82
2023/08/17 14:32:39;;;;;;;15.40;6.85;;;;;;;;;;4926353;28;98678;-84
2023/08/17 14:35:06;;;;;;;19.13;8.40;;;;;;;;;;4937153;28;99655;-82
2023/08/17 14:37:38;;;;;;;20.05;8.45;;;;;;;;;;4940353;28;98855;-82
2023/08/17 14:40:05;;;;;;;17.48;7.75;;;;;;;;;;4938186;28;99021;-82
2023/08/17 14:42:31;;;;;;;17.67;7.53;;;;;;;;;;4947202;28;99202;-82